sensor_id;sensor_type;location;lat;lon;timestamp;P1;durP1;ratioP1;P2;durP2;ratioP2
26335;SDS011;14047;50.936;4.654;2023-04-23T00:00:41;36.67;;;23.15;;
26335;SDS011;14047;50.936;4.654;2023-04-23T00:03:08;36.28;;;22.60;;
26335;SDS011;14047;50.936;4.654;2023-04-23T00:05:37;36.88;;;23.33;;
26335;SDS011;14047;50.936;4.654;2023-04-23T00:08:03;35.58;;;23.45;;
26335;SDS011;14047;50.936;4.654;2023-04-23T00:10:30;35.75;;;23.13;;
26335;SDS011;14047;50.936;4.654;2023-04-23T00:12:56;39.20;;;24.40;;
26335;SDS011;14047;50.936;4.654;2023-04-23T00:15:23;42.95;;;23.35;;
26335;SDS011;14047;50.936;4.654;2023-04-23T00:17:49;40.97;;;24.25;;
26335;SDS011;14047;50.936;4.654;2023-04-23T00:20:15;42.55;;;25.70;;
26335;SDS011;14047;50.936;4.654;2023-04-23T00:22:41;43.22;;;27.00;;
26335;SDS011;14047;50.936;4.654;2023-04-23T00:25:08;42.92;;;26.20;;
26335;SDS011;14047;50.936;4.654;2023-04-23T00:27:35;41.05;;;24.23;;
26335;SDS011;14047;50.936;4.654;2023-04-23T00:30:01;42.15;;;25.48;;
26335;SDS011;14047;50.936;4.654;2023-04-23T00:32:32;39.67;;;25.35;;
26335;SDS011;14047;50.936;4.654;2023-04-23T00:34:57;38.72;;;23.85;;
26335;SDS011;14047;50.936;4.654;2023-04-23T00:37:23;43.13;;;25.52;;
26335;SDS011;14047;50.936;4.654;2023-04-23T00:39:49;39.42;;;24.42;;
26335;SDS011;14047;50.936;4.654;2023-04-23T00:42:15;38.92;;;24.20;;
26335;SDS011;14047;50.936;4.654;2023-04-23T00:44:41;35.17;;;22.98;;
26335;SDS011;14047;50.936;4.654;2023-04-23T00:47:08;39.55;;;22.73;;
26335;SDS011;14047;50.936;4.654;2023-04-23T00:49:36;37.00;;;22.73;;
26335;SDS011;14047;50.936;4.654;2023-04-23T00:52:03;35.35;;;23.00;;
26335;SDS011;14047;50.936;4.654;2023-04-23T00:54:30;37.35;;;22.63;;
26335;SDS011;14047;50.936;4.654;2023-04-23T00:56:56;35.42;;;22.92;;
26335;SDS011;14047;50.936;4.654;2023-04-23T00:59:23;36.22;;;22.38;;
26335;SDS011;14047;50.936;4.654;2023-04-23T01:01:50;33.80;;;21.70;;
26335;SDS011;14047;50.936;4.654;2023-04-23T01:04:17;34.60;;;22.27;;
26335;SDS011;14047;50.936;4.654;2023-04-23T01:06:44;36.67;;;22.17;;
26335;SDS011;14047;50.936;4.654;2023-04-23T01:09:12;32.40;;;21.83;;
26335;SDS011;14047;50.936;4.654;2023-04-23T01:11:40;34.80;;;21.80;;
26335;SDS011;14047;50.936;4.654;2023-04-23T01:14:07;32.00;;;21.27;;
26335;SDS011;14047;50.936;4.654;2023-04-23T01:16:35;32.95;;;21.55;;
26335;SDS011;14047;50.936;4.654;2023-04-23T01:19:06;30.15;;;20.30;;
26335;SDS011;14047;50.936;4.654;2023-04-23T01:21:33;34.95;;;21.63;;
26335;SDS011;14047;50.936;4.654;2023-04-23T01:24:04;32.38;;;20.70;;
26335;SDS011;14047;50.936;4.654;2023-04-23T01:26:30;32.38;;;19.83;;
26335;SDS011;14047;50.936;4.654;2023-04-23T01:28:57;29.38;;;20.15;;
26335;SDS011;14047;50.936;4.654;2023-04-23T01:31:28;33.92;;;20.60;;
26335;SDS011;14047;50.936;4.654;2023-04-23T01:33:55;32.28;;;20.98;;
26335;SDS011;14047;50.936;4.654;2023-04-23T01:36:23;31.75;;;20.50;;
26335;SDS011;14047;50.936;4.654;2023-04-23T01:38:50;31.20;;;20.83;;
26335;SDS011;14047;50.936;4.654;2023-04-23T01:41:17;34.33;;;21.40;;
26335;SDS011;14047;50.936;4.654;2023-04-23T01:43:44;29.92;;;20.65;;
26335;SDS011;14047;50.936;4.654;2023-04-23T01:46:10;36.15;;;21.05;;
26335;SDS011;14047;50.936;4.654;2023-04-23T01:48:37;32.25;;;20.75;;
26335;SDS011;14047;50.936;4.654;2023-04-23T01:51:03;34.33;;;21.13;;
26335;SDS011;14047;50.936;4.654;2023-04-23T01:53:29;35.15;;;21.25;;
26335;SDS011;14047;50.936;4.654;2023-04-23T01:55:55;31.40;;;19.75;;
26335;SDS011;14047;50.936;4.654;2023-04-23T01:58:22;28.88;;;19.70;;
26335;SDS011;14047;50.936;4.654;2023-04-23T02:00:49;31.02;;;21.00;;
26335;SDS011;14047;50.936;4.654;2023-04-23T02:03:15;28.92;;;19.90;;
26335;SDS011;14047;50.936;4.654;2023-04-23T02:05:41;31.13;;;19.60;;
26335;SDS011;14047;50.936;4.654;2023-04-23T02:08:08;32.35;;;20.27;;
26335;SDS011;14047;50.936;4.654;2023-04-23T02:10:34;31.30;;;19.33;;
26335;SDS011;14047;50.936;4.654;2023-04-23T02:13:00;28.95;;;19.13;;
26335;SDS011;14047;50.936;4.654;2023-04-23T02:15:27;29.58;;;18.90;;
26335;SDS011;14047;50.936;4.654;2023-04-23T02:17:53;29.20;;;18.65;;
26335;SDS011;14047;50.936;4.654;2023-04-23T02:20:19;29.35;;;18.90;;
26335;SDS011;14047;50.936;4.654;2023-04-23T02:22:46;28.30;;;18.48;;
26335;SDS011;14047;50.936;4.654;2023-04-23T02:25:14;32.42;;;19.38;;
26335;SDS011;14047;50.936;4.654;2023-04-23T02:27:42;30.33;;;18.40;;
26335;SDS011;14047;50.936;4.654;2023-04-23T02:30:09;37.83;;;19.92;;
26335;SDS011;14047;50.936;4.654;2023-04-23T02:32:37;29.33;;;19.20;;
26335;SDS011;14047;50.936;4.654;2023-04-23T02:35:04;33.00;;;19.40;;
26335;SDS011;14047;50.936;4.654;2023-04-23T02:37:32;27.35;;;19.30;;
26335;SDS011;14047;50.936;4.654;2023-04-23T02:39:58;26.55;;;17.17;;
26335;SDS011;14047;50.936;4.654;2023-04-23T02:42:24;26.73;;;17.17;;
26335;SDS011;14047;50.936;4.654;2023-04-23T02:44:50;25.52;;;17.52;;
26335;SDS011;14047;50.936;4.654;2023-04-23T02:47:16;28.42;;;18.13;;
26335;SDS011;14047;50.936;4.654;2023-04-23T02:49:42;27.58;;;17.98;;
26335;SDS011;14047;50.936;4.654;2023-04-23T02:52:08;26.27;;;17.00;;
26335;SDS011;14047;50.936;4.654;2023-04-23T02:54:34;27.75;;;17.17;;
26335;SDS011;14047;50.936;4.654;2023-04-23T02:57:04;28.13;;;18.33;;
26335;SDS011;14047;50.936;4.654;2023-04-23T02:59:30;25.35;;;16.98;;
26335;SDS011;14047;50.936;4.654;2023-04-23T03:01:56;23.42;;;16.40;;
26335;SDS011;14047;50.936;4.654;2023-04-23T03:04:22;26.52;;;17.65;;
26335;SDS011;14047;50.936;4.654;2023-04-23T03:06:49;25.70;;;17.30;;
26335;SDS011;14047;50.936;4.654;2023-04-23T03:09:15;26.85;;;16.67;;
26335;SDS011;14047;50.936;4.654;2023-04-23T03:11:41;27.77;;;18.20;;
26335;SDS011;14047;50.936;4.654;2023-04-23T03:14:09;28.77;;;17.00;;
26335;SDS011;14047;50.936;4.654;2023-04-23T03:16:35;24.52;;;16.73;;
26335;SDS011;14047;50.936;4.654;2023-04-23T03:19:01;26.88;;;17.63;;
26335;SDS011;14047;50.936;4.654;2023-04-23T03:21:27;31.33;;;18.58;;
26335;SDS011;14047;50.936;4.654;2023-04-23T03:23:53;26.02;;;17.92;;
26335;SDS011;14047;50.936;4.654;2023-04-23T03:26:19;30.75;;;17.52;;
26335;SDS011;14047;50.936;4.654;2023-04-23T03:28:45;28.63;;;18.65;;
26335;SDS011;14047;50.936;4.654;2023-04-23T03:31:11;28.83;;;18.80;;
26335;SDS011;14047;50.936;4.654;2023-04-23T03:33:37;31.30;;;18.77;;
26335;SDS011;14047;50.936;4.654;2023-04-23T03:36:03;27.35;;;18.23;;
26335;SDS011;14047;50.936;4.654;2023-04-23T03:38:31;31.13;;;18.67;;
26335;SDS011;14047;50.936;4.654;2023-04-23T03:40:58;28.20;;;18.63;;
26335;SDS011;14047;50.936;4.654;2023-04-23T03:43:24;30.33;;;18.55;;
26335;SDS011;14047;50.936;4.654;2023-04-23T03:46:10;27.70;;;18.25;;
26335;SDS011;14047;50.936;4.654;2023-04-23T03:48:38;27.83;;;18.30;;
26335;SDS011;14047;50.936;4.654;2023-04-23T03:51:10;28.40;;;17.55;;
26335;SDS011;14047;50.936;4.654;2023-04-23T03:53:41;31.60;;;17.83;;
26335;SDS011;14047;50.936;4.654;2023-04-23T03:56:25;26.70;;;16.90;;
26335;SDS011;14047;50.936;4.654;2023-04-23T03:59:04;26.60;;;17.15;;
26335;SDS011;14047;50.936;4.654;2023-04-23T04:01:30;28.63;;;17.17;;
26335;SDS011;14047;50.936;4.654;2023-04-23T04:03:57;30.55;;;16.45;;
26335;SDS011;14047;50.936;4.654;2023-04-23T04:06:23;29.30;;;16.80;;
26335;SDS011;14047;50.936;4.654;2023-04-23T04:08:49;28.15;;;17.13;;
26335;SDS011;14047;50.936;4.654;2023-04-23T04:11:15;25.75;;;16.67;;
26335;SDS011;14047;50.936;4.654;2023-04-23T04:13:41;28.25;;;16.83;;
26335;SDS011;14047;50.936;4.654;2023-04-23T04:16:06;29.25;;;16.15;;
26335;SDS011;14047;50.936;4.654;2023-04-23T04:18:33;30.33;;;16.80;;
26335;SDS011;14047;50.936;4.654;2023-04-23T04:20:58;25.48;;;16.20;;
26335;SDS011;14047;50.936;4.654;2023-04-23T04:23:24;27.52;;;15.95;;
26335;SDS011;14047;50.936;4.654;2023-04-23T04:25:51;28.00;;;17.08;;
26335;SDS011;14047;50.936;4.654;2023-04-23T04:28:20;27.30;;;16.73;;
26335;SDS011;14047;50.936;4.654;2023-04-23T04:30:47;26.15;;;16.17;;
26335;SDS011;14047;50.936;4.654;2023-04-23T04:33:14;27.63;;;15.88;;
26335;SDS011;14047;50.936;4.654;2023-04-23T04:35:41;26.65;;;16.17;;
26335;SDS011;14047;50.936;4.654;2023-04-23T04:38:07;29.83;;;16.27;;
26335;SDS011;14047;50.936;4.654;2023-04-23T04:40:33;23.23;;;15.23;;
26335;SDS011;14047;50.936;4.654;2023-04-23T04:42:59;27.95;;;15.00;;
26335;SDS011;14047;50.936;4.654;2023-04-23T04:45:25;22.90;;;15.05;;
26335;SDS011;14047;50.936;4.654;2023-04-23T04:47:51;24.77;;;14.98;;
26335;SDS011;14047;50.936;4.654;2023-04-23T04:50:16;22.88;;;14.35;;
26335;SDS011;14047;50.936;4.654;2023-04-23T04:52:42;19.55;;;13.20;;
26335;SDS011;14047;50.936;4.654;2023-04-23T04:55:08;22.73;;;15.25;;
26335;SDS011;14047;50.936;4.654;2023-04-23T04:57:34;24.45;;;14.85;;
26335;SDS011;14047;50.936;4.654;2023-04-23T05:00:01;24.08;;;14.55;;
26335;SDS011;14047;50.936;4.654;2023-04-23T05:02:42;22.88;;;14.00;;
26335;SDS011;14047;50.936;4.654;2023-04-23T05:05:08;27.35;;;15.20;;
26335;SDS011;14047;50.936;4.654;2023-04-23T05:07:35;26.50;;;14.55;;
26335;SDS011;14047;50.936;4.654;2023-04-23T05:10:01;26.65;;;14.55;;
26335;SDS011;14047;50.936;4.654;2023-04-23T05:12:28;23.98;;;14.10;;
26335;SDS011;14047;50.936;4.654;2023-04-23T05:14:54;23.02;;;14.05;;
26335;SDS011;14047;50.936;4.654;2023-04-23T05:17:19;22.02;;;14.07;;
26335;SDS011;14047;50.936;4.654;2023-04-23T05:19:45;21.10;;;13.82;;
26335;SDS011;14047;50.936;4.654;2023-04-23T05:22:11;23.10;;;13.65;;
26335;SDS011;14047;50.936;4.654;2023-04-23T05:24:37;21.88;;;13.90;;
26335;SDS011;14047;50.936;4.654;2023-04-23T05:27:03;21.88;;;13.00;;
26335;SDS011;14047;50.936;4.654;2023-04-23T05:29:29;26.25;;;13.25;;
26335;SDS011;14047;50.936;4.654;2023-04-23T05:31:55;25.52;;;13.38;;
26335;SDS011;14047;50.936;4.654;2023-04-23T05:34:21;22.60;;;13.18;;
26335;SDS011;14047;50.936;4.654;2023-04-23T05:36:46;23.77;;;12.52;;
26335;SDS011;14047;50.936;4.654;2023-04-23T05:39:12;22.85;;;12.27;;
26335;SDS011;14047;50.936;4.654;2023-04-23T05:41:38;20.27;;;11.15;;
26335;SDS011;14047;50.936;4.654;2023-04-23T05:44:04;22.13;;;12.43;;
26335;SDS011;14047;50.936;4.654;2023-04-23T05:46:30;18.20;;;11.45;;
26335;SDS011;14047;50.936;4.654;2023-04-23T05:48:56;20.77;;;11.70;;
26335;SDS011;14047;50.936;4.654;2023-04-23T05:51:22;20.92;;;11.25;;
26335;SDS011;14047;50.936;4.654;2023-04-23T05:53:48;17.35;;;10.55;;
26335;SDS011;14047;50.936;4.654;2023-04-23T05:56:14;17.08;;;11.05;;
26335;SDS011;14047;50.936;4.654;2023-04-23T05:58:40;13.98;;;9.40;;
26335;SDS011;14047;50.936;4.654;2023-04-23T06:01:06;18.90;;;10.63;;
26335;SDS011;14047;50.936;4.654;2023-04-23T06:03:33;14.70;;;8.90;;
26335;SDS011;14047;50.936;4.654;2023-04-23T06:05:59;21.35;;;9.68;;
26335;SDS011;14047;50.936;4.654;2023-04-23T06:08:24;13.32;;;8.63;;
26335;SDS011;14047;50.936;4.654;2023-04-23T06:10:50;14.13;;;8.70;;
26335;SDS011;14047;50.936;4.654;2023-04-23T06:13:16;18.63;;;7.90;;
26335;SDS011;14047;50.936;4.654;2023-04-23T06:15:42;11.13;;;7.20;;
26335;SDS011;14047;50.936;4.654;2023-04-23T06:18:08;12.82;;;7.78;;
26335;SDS011;14047;50.936;4.654;2023-04-23T06:20:34;13.68;;;7.63;;
26335;SDS011;14047;50.936;4.654;2023-04-23T06:23:12;15.82;;;7.22;;
26335;SDS011;14047;50.936;4.654;2023-04-23T06:25:38;13.32;;;7.53;;
26335;SDS011;14047;50.936;4.654;2023-04-23T06:28:04;10.98;;;6.43;;
26335;SDS011;14047;50.936;4.654;2023-04-23T06:30:39;13.43;;;7.13;;
26335;SDS011;14047;50.936;4.654;2023-04-23T06:33:07;17.48;;;7.18;;
26335;SDS011;14047;50.936;4.654;2023-04-23T06:35:33;13.10;;;7.07;;
26335;SDS011;14047;50.936;4.654;2023-04-23T06:37:59;11.38;;;6.45;;
26335;SDS011;14047;50.936;4.654;2023-04-23T06:40:25;12.43;;;6.72;;
26335;SDS011;14047;50.936;4.654;2023-04-23T06:42:51;14.05;;;6.20;;
26335;SDS011;14047;50.936;4.654;2023-04-23T06:45:30;14.70;;;7.45;;
26335;SDS011;14047;50.936;4.654;2023-04-23T06:47:57;14.05;;;6.28;;
26335;SDS011;14047;50.936;4.654;2023-04-23T06:50:23;13.23;;;6.40;;
26335;SDS011;14047;50.936;4.654;2023-04-23T06:52:49;16.63;;;6.45;;
26335;SDS011;14047;50.936;4.654;2023-04-23T06:55:16;13.40;;;6.45;;
26335;SDS011;14047;50.936;4.654;2023-04-23T06:57:43;12.10;;;6.00;;
26335;SDS011;14047;50.936;4.654;2023-04-23T07:00:09;16.27;;;5.97;;
26335;SDS011;14047;50.936;4.654;2023-04-23T07:02:38;11.60;;;5.40;;
26335;SDS011;14047;50.936;4.654;2023-04-23T07:05:04;11.23;;;5.43;;
26335;SDS011;14047;50.936;4.654;2023-04-23T07:07:30;11.30;;;5.47;;
26335;SDS011;14047;50.936;4.654;2023-04-23T07:09:56;12.70;;;4.95;;
26335;SDS011;14047;50.936;4.654;2023-04-23T07:12:21;16.58;;;5.18;;
26335;SDS011;14047;50.936;4.654;2023-04-23T07:14:47;13.13;;;4.82;;
26335;SDS011;14047;50.936;4.654;2023-04-23T07:17:13;13.50;;;5.18;;
26335;SDS011;14047;50.936;4.654;2023-04-23T07:19:39;9.27;;;4.50;;
26335;SDS011;14047;50.936;4.654;2023-04-23T07:22:06;14.23;;;5.22;;
26335;SDS011;14047;50.936;4.654;2023-04-23T07:24:32;10.90;;;4.13;;
26335;SDS011;14047;50.936;4.654;2023-04-23T07:26:58;6.95;;;3.72;;
26335;SDS011;14047;50.936;4.654;2023-04-23T07:29:24;11.45;;;4.50;;
26335;SDS011;14047;50.936;4.654;2023-04-23T07:31:50;18.20;;;3.83;;
26335;SDS011;14047;50.936;4.654;2023-04-23T07:34:15;9.82;;;3.90;;
26335;SDS011;14047;50.936;4.654;2023-04-23T07:36:41;9.77;;;3.72;;
26335;SDS011;14047;50.936;4.654;2023-04-23T07:39:07;9.68;;;3.58;;
26335;SDS011;14047;50.936;4.654;2023-04-23T07:41:33;11.65;;;4.15;;
26335;SDS011;14047;50.936;4.654;2023-04-23T07:44:00;9.45;;;3.55;;
26335;SDS011;14047;50.936;4.654;2023-04-23T07:46:26;11.30;;;4.03;;
26335;SDS011;14047;50.936;4.654;2023-04-23T07:48:52;8.88;;;3.15;;
26335;SDS011;14047;50.936;4.654;2023-04-23T07:51:18;12.05;;;3.67;;
26335;SDS011;14047;50.936;4.654;2023-04-23T07:53:44;10.20;;;3.75;;
26335;SDS011;14047;50.936;4.654;2023-04-23T07:56:11;13.07;;;3.88;;
26335;SDS011;14047;50.936;4.654;2023-04-23T07:58:37;9.82;;;3.00;;
26335;SDS011;14047;50.936;4.654;2023-04-23T08:01:03;10.90;;;3.45;;
26335;SDS011;14047;50.936;4.654;2023-04-23T08:03:29;13.57;;;3.22;;
26335;SDS011;14047;50.936;4.654;2023-04-23T08:05:55;12.32;;;3.30;;
26335;SDS011;14047;50.936;4.654;2023-04-23T08:08:21;14.02;;;3.58;;
26335;SDS011;14047;50.936;4.654;2023-04-23T08:10:47;10.27;;;4.30;;
26335;SDS011;14047;50.936;4.654;2023-04-23T08:13:13;13.80;;;3.78;;
26335;SDS011;14047;50.936;4.654;2023-04-23T08:15:39;12.77;;;3.80;;
26335;SDS011;14047;50.936;4.654;2023-04-23T08:18:05;10.93;;;3.25;;
26335;SDS011;14047;50.936;4.654;2023-04-23T08:20:31;7.85;;;3.13;;
26335;SDS011;14047;50.936;4.654;2023-04-23T08:22:57;12.23;;;3.05;;
26335;SDS011;14047;50.936;4.654;2023-04-23T08:25:23;10.18;;;3.50;;
26335;SDS011;14047;50.936;4.654;2023-04-23T08:27:49;10.15;;;3.45;;
26335;SDS011;14047;50.936;4.654;2023-04-23T08:30:15;12.85;;;2.88;;
26335;SDS011;14047;50.936;4.654;2023-04-23T08:32:41;11.27;;;2.85;;
26335;SDS011;14047;50.936;4.654;2023-04-23T08:35:08;7.88;;;2.55;;
26335;SDS011;14047;50.936;4.654;2023-04-23T08:37:34;7.57;;;2.50;;
26335;SDS011;14047;50.936;4.654;2023-04-23T08:40:01;9.25;;;2.65;;
26335;SDS011;14047;50.936;4.654;2023-04-23T08:42:37;10.32;;;3.15;;
26335;SDS011;14047;50.936;4.654;2023-04-23T08:45:11;12.00;;;3.42;;
26335;SDS011;14047;50.936;4.654;2023-04-23T08:47:38;7.78;;;2.40;;
26335;SDS011;14047;50.936;4.654;2023-04-23T08:50:11;10.80;;;2.42;;
26335;SDS011;14047;50.936;4.654;2023-04-23T08:52:45;8.60;;;2.95;;
26335;SDS011;14047;50.936;4.654;2023-04-23T08:55:12;16.33;;;4.10;;
26335;SDS011;14047;50.936;4.654;2023-04-23T08:57:40;6.68;;;2.90;;
26335;SDS011;14047;50.936;4.654;2023-04-23T09:00:10;11.13;;;2.65;;
26335;SDS011;14047;50.936;4.654;2023-04-23T09:02:39;7.18;;;2.42;;
26335;SDS011;14047;50.936;4.654;2023-04-23T09:05:07;6.90;;;2.40;;
26335;SDS011;14047;50.936;4.654;2023-04-23T09:07:34;7.93;;;2.22;;
26335;SDS011;14047;50.936;4.654;2023-04-23T09:10:02;11.90;;;2.33;;
26335;SDS011;14047;50.936;4.654;2023-04-23T09:12:34;7.25;;;2.00;;
26335;SDS011;14047;50.936;4.654;2023-04-23T09:15:01;9.45;;;2.30;;
26335;SDS011;14047;50.936;4.654;2023-04-23T09:17:34;4.80;;;1.88;;
26335;SDS011;14047;50.936;4.654;2023-04-23T09:20:03;5.53;;;2.10;;
26335;SDS011;14047;50.936;4.654;2023-04-23T09:22:41;8.23;;;2.55;;
26335;SDS011;14047;50.936;4.654;2023-04-23T09:25:07;14.25;;;2.28;;
26335;SDS011;14047;50.936;4.654;2023-04-23T09:27:34;5.63;;;2.03;;
26335;SDS011;14047;50.936;4.654;2023-04-23T09:30:03;4.85;;;1.77;;
26335;SDS011;14047;50.936;4.654;2023-04-23T09:32:36;8.48;;;2.10;;
26335;SDS011;14047;50.936;4.654;2023-04-23T09:35:03;9.63;;;2.33;;
26335;SDS011;14047;50.936;4.654;2023-04-23T09:37:31;8.75;;;1.90;;
26335;SDS011;14047;50.936;4.654;2023-04-23T09:39:57;8.88;;;2.20;;
26335;SDS011;14047;50.936;4.654;2023-04-23T09:42:27;6.07;;;1.60;;
26335;SDS011;14047;50.936;4.654;2023-04-23T09:44:57;9.55;;;2.03;;
26335;SDS011;14047;50.936;4.654;2023-04-23T09:47:25;4.63;;;1.60;;
26335;SDS011;14047;50.936;4.654;2023-04-23T09:49:51;8.07;;;1.95;;
26335;SDS011;14047;50.936;4.654;2023-04-23T09:52:17;10.70;;;1.92;;
26335;SDS011;14047;50.936;4.654;2023-04-23T09:54:43;6.43;;;1.80;;
26335;SDS011;14047;50.936;4.654;2023-04-23T09:57:10;9.10;;;1.90;;
26335;SDS011;14047;50.936;4.654;2023-04-23T09:59:36;9.25;;;1.73;;
26335;SDS011;14047;50.936;4.654;2023-04-23T10:02:03;13.23;;;1.75;;
26335;SDS011;14047;50.936;4.654;2023-04-23T10:04:31;5.30;;;1.50;;
26335;SDS011;14047;50.936;4.654;2023-04-23T10:06:59;8.10;;;1.73;;
26335;SDS011;14047;50.936;4.654;2023-04-23T10:09:26;6.30;;;1.58;;
26335;SDS011;14047;50.936;4.654;2023-04-23T10:11:54;10.05;;;1.60;;
26335;SDS011;14047;50.936;4.654;2023-04-23T10:14:22;6.03;;;1.50;;
26335;SDS011;14047;50.936;4.654;2023-04-23T10:16:50;4.47;;;1.50;;
26335;SDS011;14047;50.936;4.654;2023-04-23T10:19:21;6.32;;;1.65;;
26335;SDS011;14047;50.936;4.654;2023-04-23T10:21:49;4.32;;;1.15;;
26335;SDS011;14047;50.936;4.654;2023-04-23T10:24:19;5.45;;;1.50;;
26335;SDS011;14047;50.936;4.654;2023-04-23T10:26:55;4.85;;;1.35;;
26335;SDS011;14047;50.936;4.654;2023-04-23T10:29:26;5.40;;;1.23;;
26335;SDS011;14047;50.936;4.654;2023-04-23T10:31:57;6.88;;;1.38;;
26335;SDS011;14047;50.936;4.654;2023-04-23T10:34:25;8.50;;;1.30;;
26335;SDS011;14047;50.936;4.654;2023-04-23T10:36:52;4.13;;;1.20;;
26335;SDS011;14047;50.936;4.654;2023-04-23T10:39:19;6.85;;;1.33;;
26335;SDS011;14047;50.936;4.654;2023-04-23T10:41:46;10.35;;;1.80;;
26335;SDS011;14047;50.936;4.654;2023-04-23T10:44:13;8.80;;;1.42;;
26335;SDS011;14047;50.936;4.654;2023-04-23T10:46:49;5.60;;;1.33;;
26335;SDS011;14047;50.936;4.654;2023-04-23T10:49:17;9.85;;;1.63;;
26335;SDS011;14047;50.936;4.654;2023-04-23T10:51:46;7.85;;;1.60;;
26335;SDS011;14047;50.936;4.654;2023-04-23T10:54:15;5.35;;;1.15;;
26335;SDS011;14047;50.936;4.654;2023-04-23T10:56:43;7.13;;;1.52;;
26335;SDS011;14047;50.936;4.654;2023-04-23T10:59:19;8.00;;;1.52;;
26335;SDS011;14047;50.936;4.654;2023-04-23T11:01:46;8.75;;;1.77;;
26335;SDS011;14047;50.936;4.654;2023-04-23T11:04:20;5.38;;;1.40;;
26335;SDS011;14047;50.936;4.654;2023-04-23T11:09:26;6.88;;;1.70;;
26335;SDS011;14047;50.936;4.654;2023-04-23T11:11:57;4.43;;;1.33;;
26335;SDS011;14047;50.936;4.654;2023-04-23T11:14:41;4.65;;;1.42;;
26335;SDS011;14047;50.936;4.654;2023-04-23T11:17:13;8.43;;;1.70;;
26335;SDS011;14047;50.936;4.654;2023-04-23T11:19:43;6.07;;;1.20;;
26335;SDS011;14047;50.936;4.654;2023-04-23T11:22:38;10.27;;;1.50;;
26335;SDS011;14047;50.936;4.654;2023-04-23T11:25:13;6.18;;;1.42;;
26335;SDS011;14047;50.936;4.654;2023-04-23T11:27:47;10.95;;;1.80;;
26335;SDS011;14047;50.936;4.654;2023-04-23T11:30:18;7.97;;;1.70;;
26335;SDS011;14047;50.936;4.654;2023-04-23T11:32:48;9.13;;;1.60;;
26335;SDS011;14047;50.936;4.654;2023-04-23T11:35:16;9.30;;;1.45;;
26335;SDS011;14047;50.936;4.654;2023-04-23T11:37:44;8.32;;;1.42;;
26335;SDS011;14047;50.936;4.654;2023-04-23T11:40:13;5.97;;;1.30;;
26335;SDS011;14047;50.936;4.654;2023-04-23T11:42:44;4.90;;;1.50;;
26335;SDS011;14047;50.936;4.654;2023-04-23T11:45:18;9.93;;;1.70;;
26335;SDS011;14047;50.936;4.654;2023-04-23T11:47:52;6.55;;;1.25;;
26335;SDS011;14047;50.936;4.654;2023-04-23T11:50:26;7.97;;;1.63;;
26335;SDS011;14047;50.936;4.654;2023-04-23T11:52:57;4.47;;;1.23;;
26335;SDS011;14047;50.936;4.654;2023-04-23T11:55:35;6.68;;;1.38;;
26335;SDS011;14047;50.936;4.654;2023-04-23T11:58:02;5.38;;;1.30;;
26335;SDS011;14047;50.936;4.654;2023-04-23T12:00:28;6.35;;;1.38;;
26335;SDS011;14047;50.936;4.654;2023-04-23T12:02:58;8.82;;;1.70;;
26335;SDS011;14047;50.936;4.654;2023-04-23T12:05:29;6.25;;;1.35;;
26335;SDS011;14047;50.936;4.654;2023-04-23T12:08:06;8.93;;;1.67;;
26335;SDS011;14047;50.936;4.654;2023-04-23T12:10:44;9.95;;;1.65;;
26335;SDS011;14047;50.936;4.654;2023-04-23T12:13:19;5.57;;;1.40;;
26335;SDS011;14047;50.936;4.654;2023-04-23T12:15:57;6.20;;;1.50;;
26335;SDS011;14047;50.936;4.654;2023-04-23T12:18:28;4.28;;;1.20;;
26335;SDS011;14047;50.936;4.654;2023-04-23T12:20:54;6.85;;;1.63;;
26335;SDS011;14047;50.936;4.654;2023-04-23T12:23:25;8.13;;;1.55;;
26335;SDS011;14047;50.936;4.654;2023-04-23T12:25:52;6.82;;;1.38;;
26335;SDS011;14047;50.936;4.654;2023-04-23T12:28:22;4.53;;;1.48;;
26335;SDS011;14047;50.936;4.654;2023-04-23T12:30:49;7.40;;;1.30;;
26335;SDS011;14047;50.936;4.654;2023-04-23T12:33:15;8.00;;;1.20;;
26335;SDS011;14047;50.936;4.654;2023-04-23T12:35:42;7.57;;;1.55;;
26335;SDS011;14047;50.936;4.654;2023-04-23T12:38:20;9.23;;;1.35;;
26335;SDS011;14047;50.936;4.654;2023-04-23T12:40:51;7.35;;;1.55;;
26335;SDS011;14047;50.936;4.654;2023-04-23T12:43:18;6.57;;;1.25;;
26335;SDS011;14047;50.936;4.654;2023-04-23T12:45:44;3.53;;;1.17;;
26335;SDS011;14047;50.936;4.654;2023-04-23T12:48:10;8.95;;;1.30;;
26335;SDS011;14047;50.936;4.654;2023-04-23T12:50:37;3.47;;;1.42;;
26335;SDS011;14047;50.936;4.654;2023-04-23T12:53:03;7.38;;;1.35;;
26335;SDS011;14047;50.936;4.654;2023-04-23T12:55:29;7.28;;;1.58;;
26335;SDS011;14047;50.936;4.654;2023-04-23T12:57:55;5.80;;;1.50;;
26335;SDS011;14047;50.936;4.654;2023-04-23T13:00:22;7.00;;;1.50;;
26335;SDS011;14047;50.936;4.654;2023-04-23T13:02:48;4.90;;;1.52;;
26335;SDS011;14047;50.936;4.654;2023-04-23T13:05:14;5.03;;;1.75;;
26335;SDS011;14047;50.936;4.654;2023-04-23T13:07:40;4.88;;;1.42;;
26335;SDS011;14047;50.936;4.654;2023-04-23T13:10:08;6.60;;;2.05;;
26335;SDS011;14047;50.936;4.654;2023-04-23T13:12:35;5.78;;;1.70;;
26335;SDS011;14047;50.936;4.654;2023-04-23T13:15:01;3.67;;;1.20;;
26335;SDS011;14047;50.936;4.654;2023-04-23T13:17:27;7.65;;;1.45;;
26335;SDS011;14047;50.936;4.654;2023-04-23T13:19:53;5.82;;;1.38;;
26335;SDS011;14047;50.936;4.654;2023-04-23T13:22:20;4.80;;;1.23;;
26335;SDS011;14047;50.936;4.654;2023-04-23T13:24:47;5.07;;;1.60;;
26335;SDS011;14047;50.936;4.654;2023-04-23T13:27:13;5.97;;;1.80;;
26335;SDS011;14047;50.936;4.654;2023-04-23T13:29:39;6.15;;;1.42;;
26335;SDS011;14047;50.936;4.654;2023-04-23T13:32:05;7.72;;;1.70;;
26335;SDS011;14047;50.936;4.654;2023-04-23T13:34:31;5.05;;;1.50;;
26335;SDS011;14047;50.936;4.654;2023-04-23T13:36:58;4.90;;;1.23;;
26335;SDS011;14047;50.936;4.654;2023-04-23T13:39:24;4.75;;;1.55;;
26335;SDS011;14047;50.936;4.654;2023-04-23T13:41:50;5.00;;;1.80;;
26335;SDS011;14047;50.936;4.654;2023-04-23T13:44:17;3.35;;;1.30;;
26335;SDS011;14047;50.936;4.654;2023-04-23T13:46:43;7.85;;;1.95;;
26335;SDS011;14047;50.936;4.654;2023-04-23T13:49:08;5.03;;;1.23;;
26335;SDS011;14047;50.936;4.654;2023-04-23T13:51:34;9.85;;;1.42;;
26335;SDS011;14047;50.936;4.654;2023-04-23T13:54:00;4.55;;;1.50;;
26335;SDS011;14047;50.936;4.654;2023-04-23T13:56:26;8.05;;;1.60;;
26335;SDS011;14047;50.936;4.654;2023-04-23T13:58:54;6.10;;;1.33;;
26335;SDS011;14047;50.936;4.654;2023-04-23T14:01:26;5.95;;;1.45;;
26335;SDS011;14047;50.936;4.654;2023-04-23T14:03:53;5.07;;;1.52;;
26335;SDS011;14047;50.936;4.654;2023-04-23T14:06:19;8.98;;;1.40;;
26335;SDS011;14047;50.936;4.654;2023-04-23T14:08:44;9.05;;;1.50;;
26335;SDS011;14047;50.936;4.654;2023-04-23T14:11:10;5.15;;;1.60;;
26335;SDS011;14047;50.936;4.654;2023-04-23T14:13:36;6.13;;;1.60;;
26335;SDS011;14047;50.936;4.654;2023-04-23T14:16:02;8.02;;;1.60;;
26335;SDS011;14047;50.936;4.654;2023-04-23T14:18:28;4.25;;;1.73;;
26335;SDS011;14047;50.936;4.654;2023-04-23T14:20:54;6.68;;;1.80;;
26335;SDS011;14047;50.936;4.654;2023-04-23T14:25:52;5.97;;;1.63;;
26335;SDS011;14047;50.936;4.654;2023-04-23T14:30:54;6.60;;;1.80;;
26335;SDS011;14047;50.936;4.654;2023-04-23T14:33:21;4.10;;;2.40;;
26335;SDS011;14047;50.936;4.654;2023-04-23T14:35:47;9.02;;;2.40;;
26335;SDS011;14047;50.936;4.654;2023-04-23T14:38:13;8.23;;;3.67;;
26335;SDS011;14047;50.936;4.654;2023-04-23T14:40:39;7.57;;;2.20;;
26335;SDS011;14047;50.936;4.654;2023-04-23T14:43:05;4.70;;;2.30;;